First I — 3ESJ5 — position and weather

sailwx.info

Track history (hours):
 
Tides and Currents Weather Stations Pressure Air Temp Water Temp Dewpoint Dewpoint Depression Visibility Wind Speed Wind Dir Waves Ship Positions

First I

Last reported at 2017-Nov-15 01:31 UTC. Time now 2017-Nov-18 10:16 UTC.
Position S 28°54' E 032°07'.

Length 190 m; draft 10.5 m.

Type: Cargo ship. MMSI: 370317000.

Date/timePositionNaut miles runAvg speedWind from/ knotsBaromVisibWave heightAir tempDewpointWater temp
2017-Nov-15 01:31S 28°54' E 032°07'0 0.2
2017-Nov-15 01:25S 28°54' E 032°07'0 0.0
2017-Nov-15 00:31S 28°54' E 032°07'  
2017-Nov-11 22:55S 29°12' E 031°55'510.2
2017-Nov-11 22:26S 29°16' E 031°52'410.3
2017-Nov-11 22:01S 29°20' E 031°49'510.1
2017-Nov-11 21:30S 29°24' E 031°46'510.4
2017-Nov-11 21:00S 29°28' E 031°42'510.0
2017-Nov-11 20:31S 29°32' E 031°39'510.5
2017-Nov-11 20:00S 29°37' E 031°35'5 9.8
2017-Nov-11 19:31S 29°41' E 031°32'510.3
2017-Nov-11 19:01S 29°45' E 031°28'510.9
2017-Nov-11 18:31S 29°50' E 031°25'510.6
2017-Nov-11 18:01S 29°54' E 031°22'510.1
2017-Nov-11 17:31S 29°58' E 031°18'5 9.8
2017-Nov-11 17:01S 30°02' E 031°15'510.0
2017-Nov-11 16:30S 30°06' E 031°12'510.5
2017-Nov-11 16:01S 30°10' E 031°08'510.5
2017-Nov-11 15:31S 30°15' E 031°05'510.6
2017-Nov-11 15:00S 30°19' E 031°01'510.3
2017-Nov-11 14:30S 30°23' E 030°57'  
Track history (hours):
 
Tides and Currents Weather Stations Pressure Air Temp Water Temp Dewpoint Dewpoint Depression Visibility Wind Speed Wind Dir Waves Ship Positions

First I

Last reported at 2017-Nov-15 01:31 UTC. Time now 2017-Nov-18 10:16 UTC.
Position S 28°54' E 032°07'.

Length 190 m; draft 10.5 m.

Type: Cargo ship. MMSI: 370317000.

Date/timePositionNaut miles runAvg speedWind from/ knotsBaromVisibWave heightAir tempDewpointWater temp
2017-Nov-15 01:31S 28°54' E 032°07'0 0.2
2017-Nov-15 01:25S 28°54' E 032°07'0 0.0
2017-Nov-15 00:31S 28°54' E 032°07'  
2017-Nov-11 22:55S 29°12' E 031°55'510.2
2017-Nov-11 22:26S 29°16' E 031°52'410.3
2017-Nov-11 22:01S 29°20' E 031°49'510.1
2017-Nov-11 21:30S 29°24' E 031°46'510.4
2017-Nov-11 21:00S 29°28' E 031°42'510.0
2017-Nov-11 20:31S 29°32' E 031°39'510.5
2017-Nov-11 20:00S 29°37' E 031°35'5 9.8
2017-Nov-11 19:31S 29°41' E 031°32'510.3
2017-Nov-11 19:01S 29°45' E 031°28'510.9
2017-Nov-11 18:31S 29°50' E 031°25'510.6
2017-Nov-11 18:01S 29°54' E 031°22'510.1
2017-Nov-11 17:31S 29°58' E 031°18'5 9.8
2017-Nov-11 17:01S 30°02' E 031°15'510.0
2017-Nov-11 16:30S 30°06' E 031°12'510.5
2017-Nov-11 16:01S 30°10' E 031°08'510.5
2017-Nov-11 15:31S 30°15' E 031°05'510.6
2017-Nov-11 15:00S 30°19' E 031°01'510.3
2017-Nov-11 14:30S 30°23' E 030°57'  

Dump ship's entire track history